LIRA/CIA METAR and TAF weather

Enter ICAO airport designator
Station Type Date Time Source
LIRA METAR 2020/02/22 06:20 UTC NOAA

LIRA 220620Z VRB02KT CAVOK 05/03 Q1028


Station Type Date Time Source
LIRA Decoded METAR 2020/02/22 06:20 UTC NOAA

Roma / Ciampino, Italy (LIRA) 41-47N 012-35E 105M
Feb 22, 2020 - 01:20 AM EST / 2020.02.22 0620 UTC
Wind: Variable at 2 MPH (2 KT):0
Visibility: greater than 7 mile(s):0
Temperature: 41 F (5 C)
Dew Point: 37 F (3 C)
Relative Humidity: 86%
Pressure (altimeter): 30.36 in. Hg (1028 hPa)
ob: LIRA 220620Z VRB02KT CAVOK 05/03 Q1028
cycle: 6

Station Type Date Time Source
LIRA TAF 2020/02/22 06:21 UTC NOAA

TAF LIRA 220500Z 2206/2306 VRB05KT CAVOK

Example: see airport list